Hlavní strana
METAR-TAF:

METAR-TAF

Letiště :

El Borma, Tunisko

zeměpisná šířka: 31-41N, zeměpisná délka: 009-10E, výška: 258 m

Aktuální stav počasí

Zpráva byla vytvořena před 34 minutami, v 10:00 UTC
Východní vítr 13 kt
Teplota 16°C
Vlhkost vzduchu 55%
Tlak 1029 hPa
Viditelnost 10 km a více
Žádná oblačnost pod 1500 m, nevyskytují se cumulonimby.

METAR: DTTR 251000Z 08013KT CAVOK 16/07 Q1029

Čas: 11:34 (10:34 UTC)

Předpověď počasí

Zpráva byla vytvořena před 1 hodinou a 34 minutami, v 09:00 UTC
Předpověď platná od 25 v 10 UTC do 25 v 19 UTC
Východní vítr 12 kt
Viditelnost 10 km a více
Polojasno ve výšce 2300 ft

TAF: DTTR 250900Z 2510/2519 08012KT 9999 SCT023

Stav a předpovědi počasí z více než 4 000 letišť (zprávy METAR a TAF).

Červené a žluté tečky na mapě představují dostupné meteorologické stanice.

Když kurzor umístíte na tečku, zobrazí se název stanice.

Pak kliknutím zobrazíte stav a předpověď počasí.

Chcete-li změnit mapu, kliknutím na zelené tlačítko se znaménkem +mapu přiblížíte, kliknutím na zelené tlačítko se znaménkem – mapu oddálíte a kliknutím na zelené šipky přejdete na sousední mapy.


METAR-TAF: